»·PEaware :: AAL356 KPHX-KDFW

AAL356 :: KPHX-KDFW

FLIGHT INFORMATION

Flight Status: Arrived
Operator:
American Airlines
More flights by this operator :: More flights under this callsign
Pilot: Drew L. (13237)
Aircraft: AIRBUS A321
(A321)
More flights by this aircraft type
Origin: KPHX Phoenix Sky Harbor Intl
United States
Destination: KDFW Dallas-Ft Worth Intl
United States
More flights between these airports :: More routes between these airports
Route: BROAK1 MAXXO TXO TURKI JOVEM4
File this flight plan on PilotEdge
Remarks: RMK / SIMBRIEF
Altitude:
(Current/Filed)
35,000ft
Speed:
(Current/Filed)
458kts
Departed: 03-Sep-20 11:06 PM
Arrived: 04-Sep-20 01:01 AM
Distance/Time
Traveled:
752nm/1:55
Distance/Time
To Go:
Arrived

Flight Plot

Page will automatically refresh every two minutes.

Flight plan parsing failed; only flown route is shown


Map Options




Map Legend


Flown Route
Filed Route
Departure Airport
Arrival Airport
Navaid (VOR, NDB)
Fix

Horizontal Profiles

Position Reports

Time Latitude Longitude Heading Altitude Ground
Speed
03-Sep-20 22:41 33.437853 -111.997411 97 1133ft 0kts
03-Sep-20 22:42 33.437853 -111.997411 97 1133ft 0kts
03-Sep-20 22:43 33.437853 -111.997411 97 1133ft 0kts
03-Sep-20 22:44 33.437853 -111.997411 97 1133ft 0kts
03-Sep-20 22:45 33.437853 -111.997411 97 1133ft 0kts
03-Sep-20 22:46 33.437853 -111.997411 97 1133ft 0kts
03-Sep-20 22:47 33.437853 -111.997411 97 1133ft 0kts
03-Sep-20 22:48 33.437853 -111.997411 97 1133ft 0kts
03-Sep-20 22:49 33.437853 -111.997411 97 1133ft 0kts
03-Sep-20 22:50 33.437853 -111.997411 97 1133ft 0kts
03-Sep-20 22:51 33.437853 -111.997411 97 1133ft 0kts
03-Sep-20 22:52 33.437853 -111.997411 97 1133ft 0kts
03-Sep-20 22:53 33.437853 -111.997411 97 1133ft 0kts
03-Sep-20 22:54 33.437853 -111.997411 97 1133ft 0kts
03-Sep-20 22:55 33.437853 -111.997411 97 1133ft 0kts
03-Sep-20 22:56 33.437853 -111.997411 97 1133ft 0kts
03-Sep-20 22:57 33.437853 -111.997411 97 1133ft 0kts
03-Sep-20 22:58 33.437853 -111.997411 97 1133ft 0kts
03-Sep-20 22:59 33.437853 -111.997411 97 1133ft 0kts
03-Sep-20 23:00 33.437854 -111.997529 104 1133ft 2kts
03-Sep-20 23:01 33.437734 -111.998058 1 1133ft 0kts
03-Sep-20 23:02 33.437659 -111.998052 358 1133ft 0kts
03-Sep-20 23:03 33.439017 -111.997092 89 1135ft 9kts
03-Sep-20 23:04 33.439228 -111.992522 41 1136ft 15kts
03-Sep-20 23:05 33.440844 -112.000320 270 1134ft 113kts
03-Sep-20 23:06 33.434129 -112.057352 248 3036ft 201kts
03-Sep-20 23:07 33.411550 -112.128473 250 4896ft 252kts
03-Sep-20 23:08 33.358723 -112.180074 166 6376ft 287kts
03-Sep-20 23:09 33.283372 -112.145713 140 8550ft 295kts
03-Sep-20 23:10 33.243155 -112.064856 82 10325ft 306kts
03-Sep-20 23:11 33.257269 -111.956391 77 11252ft 355kts
03-Sep-20 23:12 33.299385 -111.841050 61 12133ft 403kts
03-Sep-20 23:13 33.353124 -111.718704 62 14047ft 420kts
03-Sep-20 23:14 33.401904 -111.590342 74 15981ft 432kts
03-Sep-20 23:15 33.431574 -111.449323 74 17817ft 443kts
03-Sep-20 23:16 33.463347 -111.305229 74 19550ft 453kts
03-Sep-20 23:17 33.495986 -111.157663 74 21147ft 463kts
03-Sep-20 23:18 33.529342 -111.006401 74 22576ft 473kts
03-Sep-20 23:19 33.563086 -110.852618 74 23820ft 483kts
03-Sep-20 23:20 33.596989 -110.697194 74 25463ft 480kts
03-Sep-20 23:21 33.630418 -110.542903 74 26925ft 476kts
03-Sep-20 23:22 33.663418 -110.389579 73 28216ft 474kts
03-Sep-20 23:23 33.696078 -110.236444 74 29348ft 472kts
03-Sep-20 23:24 33.728342 -110.084382 74 30350ft 470kts
03-Sep-20 23:25 33.754568 -109.930640 80 31234ft 469kts
03-Sep-20 23:26 33.774275 -109.776219 79 32019ft 468kts
03-Sep-20 23:27 33.794549 -109.622098 79 32745ft 466kts
03-Sep-20 23:28 33.814734 -109.468023 79 33410ft 465kts
03-Sep-20 23:29 33.834622 -109.314701 80 34003ft 464kts
03-Sep-20 23:30 33.854207 -109.161769 80 34525ft 462kts
03-Sep-20 23:31 33.873698 -109.008271 79 34783ft 467kts
03-Sep-20 23:32 33.893192 -108.853592 79 35094ft 469kts
03-Sep-20 23:33 33.912510 -108.698607 79 35239ft 468kts
03-Sep-20 23:34 33.931524 -108.544362 79 35240ft 463kts
03-Sep-20 23:35 33.950214 -108.391208 79 35239ft 463kts
03-Sep-20 23:36 33.968676 -108.237903 80 35234ft 463kts
03-Sep-20 23:37 33.986996 -108.084244 80 35244ft 463kts
03-Sep-20 23:38 34.005088 -107.931051 80 35260ft 463kts
03-Sep-20 23:39 34.023016 -107.777583 80 35249ft 463kts
03-Sep-20 23:40 34.040827 -107.623441 80 35232ft 463kts
03-Sep-20 23:41 34.058361 -107.469956 80 35236ft 463kts
03-Sep-20 23:42 34.075781 -107.315666 80 35239ft 463kts
03-Sep-20 23:43 34.092900 -107.161853 80 35239ft 463kts
03-Sep-20 23:44 34.110255 -107.007240 80 35239ft 463kts
03-Sep-20 23:45 34.127320 -106.853024 80 35238ft 466kts
03-Sep-20 23:46 34.144101 -106.697611 80 35238ft 467kts
03-Sep-20 23:47 34.160692 -106.541860 80 35239ft 467kts
03-Sep-20 23:48 34.177050 -106.386371 80 35239ft 467kts
03-Sep-20 23:49 34.193181 -106.230495 81 35239ft 467kts
03-Sep-20 23:50 34.209115 -106.074931 81 35239ft 467kts
03-Sep-20 23:51 34.224896 -105.919063 81 35291ft 467kts
03-Sep-20 23:52 34.240457 -105.763388 81 35402ft 467kts
03-Sep-20 23:53 34.255788 -105.608028 81 35443ft 466kts
03-Sep-20 23:54 34.270916 -105.452652 81 35445ft 466kts
03-Sep-20 23:55 34.285873 -105.296759 81 35422ft 466kts
03-Sep-20 23:56 34.300583 -105.141004 81 35365ft 466kts
03-Sep-20 23:57 34.315161 -104.985163 81 35318ft 465kts
03-Sep-20 23:58 34.329438 -104.830269 82 35307ft 464kts
03-Sep-20 23:59 34.343549 -104.674844 82 35305ft 464kts
04-Sep-20 00:00 34.357420 -104.519983 82 35306ft 464kts
04-Sep-20 00:01 34.371129 -104.364717 82 35305ft 464kts
04-Sep-20 00:03 34.384618 -104.209097 82 35305ft 464kts
04-Sep-20 00:04 34.397908 -104.053878 82 35305ft 464kts
04-Sep-20 00:05 34.411030 -103.898466 82 35285ft 464kts
04-Sep-20 00:06 34.423949 -103.743035 82 35271ft 464kts
04-Sep-20 00:07 34.436712 -103.587061 82 35269ft 464kts
04-Sep-20 00:08 34.449245 -103.431448 82 35269ft 464kts
04-Sep-20 00:09 34.461542 -103.275972 83 35268ft 464kts
04-Sep-20 00:10 34.473657 -103.120253 83 35269ft 465kts
04-Sep-20 00:11 34.485626 -102.964083 83 35268ft 466kts
04-Sep-20 00:12 34.491028 -102.807400 92 35269ft 468kts
04-Sep-20 00:13 34.475762 -102.650664 96 35269ft 468kts
04-Sep-20 00:14 34.459333 -102.494153 96 35269ft 468kts
04-Sep-20 00:15 34.442895 -102.338015 96 35268ft 468kts
04-Sep-20 00:16 34.426285 -102.181688 96 35267ft 468kts
04-Sep-20 00:17 34.409424 -102.025292 96 35247ft 468kts
04-Sep-20 00:17 34.395229 -101.895121 96 35224ft 468kts
04-Sep-20 00:19 34.375094 -101.712721 96 35215ft 468kts
04-Sep-20 00:20 34.357686 -101.556983 96 35214ft 468kts
04-Sep-20 00:21 34.340047 -101.401043 96 35214ft 468kts
04-Sep-20 00:22 34.322191 -101.244737 97 35214ft 468kts
04-Sep-20 00:22 34.307219 -101.115346 97 35215ft 468kts
04-Sep-20 00:24 34.285928 -100.932987 97 35206ft 469kts
04-Sep-20 00:24 34.270552 -100.802837 97 35175ft 471kts
04-Sep-20 00:25 34.251827 -100.646068 97 35147ft 471kts
04-Sep-20 00:26 34.232934 -100.489686 97 35141ft 471kts
04-Sep-20 00:27 34.213788 -100.333017 98 35139ft 471kts
04-Sep-20 00:28 34.182017 -100.179290 110 35142ft 472kts
04-Sep-20 00:29 34.136853 -100.030779 110 35141ft 472kts
04-Sep-20 00:30 34.091613 -99.881836 110 35141ft 472kts
04-Sep-20 00:31 34.048693 -99.741009 110 35137ft 472kts
04-Sep-20 00:32 34.003370 -99.593082 110 35118ft 472kts
04-Sep-20 00:33 33.957689 -99.444842 110 35097ft 472kts
04-Sep-20 00:34 33.911701 -99.296798 110 35087ft 472kts
04-Sep-20 00:35 33.865103 -99.148691 110 35084ft 472kts
04-Sep-20 00:36 33.818506 -99.000626 111 34355ft 474kts
04-Sep-20 00:37 33.771731 -98.852448 111 33357ft 475kts
04-Sep-20 00:38 33.724970 -98.705091 111 32322ft 473kts
04-Sep-20 00:39 33.677922 -98.556948 110 29773ft 479kts
04-Sep-20 00:40 33.630038 -98.406651 109 26591ft 486kts
04-Sep-20 00:41 33.581954 -98.255960 109 24836ft 482kts
04-Sep-20 00:42 33.535810 -98.112090 109 23378ft 447kts
04-Sep-20 00:43 33.490192 -97.970237 108 20990ft 465kts
04-Sep-20 00:44 33.445099 -97.830746 108 16752ft 430kts
04-Sep-20 00:45 33.404890 -97.706686 108 14450ft 375kts
04-Sep-20 00:46 33.360462 -97.602910 123 12366ft 335kts
04-Sep-20 00:47 33.307293 -97.517232 123 9816ft 308kts
04-Sep-20 00:48 33.269883 -97.432870 92 7684ft 272kts
04-Sep-20 00:49 33.265867 -97.345313 92 6175ft 256kts
04-Sep-20 00:50 33.261162 -97.262101 100 5038ft 249kts
04-Sep-20 00:51 33.240040 -97.183271 106 5004ft 249kts
04-Sep-20 00:52 33.219851 -97.105715 105 4986ft 221kts
04-Sep-20 00:53 33.200922 -97.038400 124 4985ft 216kts
04-Sep-20 00:54 33.142625 -97.024810 178 4958ft 220kts
04-Sep-20 00:55 33.086043 -97.025100 178 3901ft 179kts
04-Sep-20 00:56 33.039196 -97.025319 178 3029ft 155kts
04-Sep-20 00:57 32.996291 -97.025544 179 2220ft 153kts
04-Sep-20 00:58 32.953733 -97.025766 179 1407ft 151kts
04-Sep-20 00:59 32.911834 -97.026017 179 620ft 146kts
04-Sep-20 01:00 32.897483 -97.029265 271 615ft 25kts
04-Sep-20 01:01 32.899674 -97.033144 0 615ft 23kts
04-Sep-20 01:02 32.904934 -97.034590 267 615ft 8kts
04-Sep-20 01:03 32.904946 -97.035046 272 615ft 0kts
04-Sep-20 01:04 32.904946 -97.035046 272 615ft 0kts
04-Sep-20 01:05 32.904946 -97.035046 272 615ft 0kts
04-Sep-20 01:06 32.904946 -97.035046 272 615ft 0kts
04-Sep-20 01:07 32.904946 -97.035046 272 615ft 0kts

Navigation Log

Ident Type
Flight plan parsing failed, navigation log unavailable